createdAt,value
2022-10-30T00:00:27.963Z,19.64
2022-10-30T00:01:28.027Z,19.62
2022-10-30T00:02:28.037Z,19.60
2022-10-30T00:03:27.935Z,19.64
2022-10-30T00:04:27.907Z,19.62
2022-10-30T00:05:27.895Z,19.65
2022-10-30T00:06:27.899Z,19.58
2022-10-30T00:07:27.883Z,19.65
2022-10-30T00:08:27.867Z,19.62
2022-10-30T00:09:27.862Z,19.65
2022-10-30T00:10:27.856Z,19.65
2022-10-30T00:11:27.825Z,19.65
2022-10-30T00:12:27.805Z,19.61
2022-10-30T00:13:27.800Z,19.55
2022-10-30T00:14:27.785Z,19.53
2022-10-30T00:15:27.787Z,19.60
2022-10-30T00:16:27.760Z,19.60
2022-10-30T00:17:27.746Z,19.57
2022-10-30T00:18:27.743Z,19.53
2022-10-30T00:19:27.724Z,19.53
2022-10-30T00:20:27.708Z,19.58
2022-10-30T00:21:27.710Z,19.49
2022-10-30T00:22:27.687Z,19.52
2022-10-30T00:23:27.683Z,19.49
2022-10-30T00:24:27.674Z,19.52
2022-10-30T00:25:27.641Z,19.53
2022-10-30T00:26:27.640Z,19.52
2022-10-30T00:27:27.637Z,19.46
2022-10-30T00:28:27.636Z,19.49
2022-10-30T00:29:27.609Z,19.46
2022-10-30T00:30:27.577Z,19.47
2022-10-30T00:31:27.583Z,19.49
2022-10-30T00:32:27.568Z,19.46
2022-10-30T00:33:27.553Z,19.46
2022-10-30T00:34:27.536Z,19.45
2022-10-30T00:35:27.524Z,19.43
2022-10-30T00:36:27.507Z,19.42
2022-10-30T00:37:27.492Z,19.35
2022-10-30T00:38:27.484Z,19.38
2022-10-30T00:39:27.486Z,19.35
2022-10-30T00:40:27.487Z,19.34
2022-10-30T00:41:27.445Z,19.38
2022-10-30T00:42:27.455Z,19.31
2022-10-30T00:43:27.441Z,19.31
2022-10-30T00:44:27.419Z,19.34
2022-10-30T00:45:27.432Z,19.30
2022-10-30T00:46:27.385Z,19.31
2022-10-30T00:47:27.403Z,19.25
2022-10-30T00:48:27.353Z,19.27
2022-10-30T00:49:27.343Z,19.27
2022-10-30T00:51:27.334Z,19.24
2022-10-30T00:52:27.321Z,19.24
2022-10-30T00:53:27.300Z,19.23
2022-10-30T00:54:27.300Z,19.24
2022-10-30T00:55:27.274Z,19.24
2022-10-30T00:56:27.264Z,19.23
2022-10-30T00:57:27.262Z,19.21
2022-10-30T00:58:27.235Z,19.21
2022-10-30T00:59:27.228Z,19.21
2022-10-30T01:00:27.209Z,19.23
2022-10-30T01:01:27.309Z,19.20
2022-10-30T01:02:27.356Z,19.17
2022-10-30T01:03:27.180Z,19.13
2022-10-30T01:04:29.987Z,19.15
2022-10-30T01:05:27.151Z,19.17
2022-10-30T01:06:27.129Z,19.13
2022-10-30T01:07:27.120Z,19.12
2022-10-30T01:08:27.143Z,19.15
2022-10-30T01:09:27.102Z,19.15
2022-10-30T01:10:27.079Z,19.13
2022-10-30T01:11:27.066Z,19.16
2022-10-30T01:12:27.053Z,19.16
2022-10-30T01:13:27.038Z,19.17
2022-10-30T01:14:27.031Z,19.13
2022-10-30T01:15:27.034Z,19.13
2022-10-30T01:16:27.004Z,19.13
2022-10-30T01:17:26.989Z,19.15
2022-10-30T01:18:26.976Z,19.10
2022-10-30T01:19:26.966Z,19.13
2022-10-30T01:20:26.958Z,19.16
2022-10-30T01:21:26.958Z,19.13
2022-10-30T01:22:26.940Z,19.16
2022-10-30T01:23:26.922Z,19.12
2022-10-30T01:24:26.900Z,19.15
2022-10-30T01:25:26.929Z,19.13
2022-10-30T01:26:26.881Z,19.13
2022-10-30T01:27:26.920Z,19.12
2022-10-30T01:28:26.860Z,19.12
2022-10-30T01:29:26.842Z,19.10
2022-10-30T01:30:26.918Z,19.12
2022-10-30T01:31:26.818Z,19.12
2022-10-30T01:32:26.806Z,19.12
2022-10-30T01:33:26.797Z,19.13
2022-10-30T01:34:26.784Z,19.09
2022-10-30T01:35:26.762Z,19.10
2022-10-30T01:36:26.752Z,19.05
2022-10-30T01:37:26.739Z,18.99
2022-10-30T01:38:26.743Z,18.94
2022-10-30T01:39:26.724Z,18.99
2022-10-30T01:40:26.753Z,18.93
2022-10-30T01:41:26.695Z,18.93
2022-10-30T01:42:26.682Z,18.87
2022-10-30T01:43:26.665Z,18.87
2022-10-30T01:44:26.664Z,18.84
2022-10-30T01:45:26.647Z,18.78
2022-10-30T01:46:26.625Z,18.78
2022-10-30T01:47:26.629Z,18.78
2022-10-30T01:48:26.599Z,18.75
2022-10-30T01:49:26.608Z,18.75
2022-10-30T01:50:26.571Z,18.69
2022-10-30T01:51:26.586Z,18.66
2022-10-30T01:52:26.549Z,18.68
2022-10-30T01:53:26.535Z,18.69
2022-10-30T01:54:26.520Z,18.69
2022-10-30T01:55:26.512Z,18.74
2022-10-30T01:56:26.500Z,18.69
2022-10-30T01:57:26.511Z,18.71
2022-10-30T01:58:26.467Z,18.71
2022-10-30T01:59:26.470Z,18.71
2022-10-30T02:00:26.445Z,18.66
2022-10-30T02:01:26.537Z,18.71
2022-10-30T02:02:26.595Z,18.72
2022-10-30T02:03:26.436Z,18.65
2022-10-30T02:04:26.402Z,18.68
2022-10-30T02:05:26.383Z,18.68
2022-10-30T02:06:26.369Z,18.66
2022-10-30T02:07:26.362Z,18.71
2022-10-30T02:08:26.364Z,18.69
2022-10-30T02:09:26.337Z,18.71
2022-10-30T02:10:26.325Z,18.71
2022-10-30T02:11:26.307Z,18.71
2022-10-30T02:12:26.293Z,18.71
2022-10-30T02:13:26.311Z,18.69
2022-10-30T02:14:26.269Z,18.69
2022-10-30T02:15:26.269Z,18.65
2022-10-30T02:16:26.245Z,18.66
2022-10-30T02:17:26.245Z,18.69
2022-10-30T02:18:26.214Z,18.69
2022-10-30T02:19:26.199Z,18.69
2022-10-30T02:20:26.201Z,18.68
2022-10-30T02:21:26.201Z,18.74
2022-10-30T02:22:26.254Z,18.71
2022-10-30T02:23:26.157Z,18.68
2022-10-30T02:24:26.138Z,18.66
2022-10-30T02:25:26.120Z,18.69
2022-10-30T02:26:26.115Z,18.66
2022-10-30T02:27:26.119Z,18.65
2022-10-30T02:28:26.083Z,18.64
2022-10-30T02:29:26.072Z,18.64
2022-10-30T02:30:26.065Z,18.62
2022-10-30T02:31:26.054Z,18.59
2022-10-30T02:32:26.042Z,18.57
2022-10-30T02:33:26.043Z,18.53
2022-10-30T02:34:26.013Z,18.56
2022-10-30T02:35:26.002Z,18.54
2022-10-30T02:36:25.984Z,18.56
2022-10-30T02:37:25.974Z,18.57
2022-10-30T02:38:25.964Z,18.60
2022-10-30T02:39:25.956Z,18.60
2022-10-30T02:40:25.942Z,18.59
2022-10-30T02:41:25.916Z,18.59
2022-10-30T02:42:25.914Z,18.56
2022-10-30T02:43:25.940Z,18.53
2022-10-30T02:44:25.878Z,18.51
2022-10-30T02:45:25.887Z,18.50
2022-10-30T02:46:25.858Z,18.49
2022-10-30T02:47:25.851Z,18.41
2022-10-30T02:48:25.829Z,18.39
2022-10-30T02:49:25.812Z,18.42
2022-10-30T02:50:25.824Z,18.39
2022-10-30T02:51:25.846Z,18.38
2022-10-30T02:52:25.791Z,18.35
2022-10-30T02:53:25.785Z,18.35
2022-10-30T02:54:25.758Z,18.31
2022-10-30T02:55:25.770Z,18.29
2022-10-30T02:56:25.727Z,18.23
2022-10-30T02:57:25.724Z,18.26
2022-10-30T02:58:25.756Z,18.25
2022-10-30T02:59:25.691Z,18.25
2022-10-30T03:00:25.674Z,18.14
2022-10-30T03:01:25.786Z,18.14
2022-10-30T03:02:25.704Z,18.14
2022-10-30T03:03:25.656Z,18.16
2022-10-30T03:04:25.638Z,18.20
2022-10-30T03:05:25.610Z,18.19
2022-10-30T03:06:25.619Z,18.17
2022-10-30T03:07:25.590Z,18.20
2022-10-30T03:08:25.572Z,18.20
2022-10-30T03:09:25.577Z,18.19
2022-10-30T03:10:25.544Z,18.16
2022-10-30T03:11:25.550Z,18.11
2022-10-30T03:12:25.539Z,18.14
2022-10-30T03:13:25.511Z,18.10
2022-10-30T03:14:25.509Z,18.11
2022-10-30T03:15:25.496Z,18.05
2022-10-30T03:16:25.469Z,18.04
2022-10-30T03:17:25.560Z,18.01
2022-10-30T03:18:25.455Z,18.09
2022-10-30T03:19:25.432Z,18.07
2022-10-30T03:20:25.433Z,18.02
2022-10-30T03:21:25.416Z,18.04
2022-10-30T03:22:25.391Z,18.01
2022-10-30T03:23:25.403Z,17.99
2022-10-30T03:24:25.378Z,18.01
2022-10-30T03:25:25.367Z,18.04
2022-10-30T03:26:25.348Z,18.01
2022-10-30T03:27:25.337Z,17.99
2022-10-30T03:28:25.315Z,18.05
2022-10-30T03:29:25.304Z,18.05
2022-10-30T03:30:25.305Z,18.05
2022-10-30T03:31:25.303Z,18.02
2022-10-30T03:33:25.314Z,17.96
2022-10-30T03:34:25.240Z,17.94
2022-10-30T03:35:25.233Z,17.96
2022-10-30T03:36:25.217Z,17.94
2022-10-30T03:37:25.202Z,17.86
2022-10-30T03:38:25.189Z,17.89
2022-10-30T03:39:25.203Z,17.86
2022-10-30T03:40:25.163Z,17.84
2022-10-30T03:41:25.149Z,17.76
2022-10-30T03:42:25.142Z,17.79
2022-10-30T03:43:25.142Z,17.76
2022-10-30T03:44:27.710Z,17.79
2022-10-30T03:45:25.110Z,17.76
2022-10-30T03:46:25.086Z,17.71
2022-10-30T03:47:25.118Z,17.68
2022-10-30T03:48:25.066Z,17.66
2022-10-30T03:49:25.050Z,17.62
2022-10-30T03:50:25.031Z,17.58
2022-10-30T03:51:25.051Z,17.55
2022-10-30T03:52:25.022Z,17.60
2022-10-30T03:53:25.002Z,17.51
2022-10-30T03:54:24.989Z,17.51
2022-10-30T03:55:24.964Z,17.45
2022-10-30T03:56:24.962Z,17.43
2022-10-30T03:57:24.981Z,17.38
2022-10-30T03:58:24.930Z,17.39
2022-10-30T03:59:24.921Z,17.36
2022-10-30T04:00:24.938Z,17.30
2022-10-30T04:01:25.029Z,17.27
2022-10-30T04:02:24.925Z,17.27
2022-10-30T04:03:24.900Z,17.22
2022-10-30T04:04:24.862Z,17.20
2022-10-30T04:05:24.839Z,17.21
2022-10-30T04:06:24.829Z,17.20
2022-10-30T04:07:24.825Z,17.20
2022-10-30T04:08:24.817Z,17.20
2022-10-30T04:09:24.806Z,17.18
2022-10-30T04:10:24.789Z,17.20
2022-10-30T04:11:24.843Z,17.15
2022-10-30T04:12:24.767Z,17.18
2022-10-30T04:13:24.754Z,17.12
2022-10-30T04:14:24.734Z,17.10
2022-10-30T04:15:24.736Z,17.05
2022-10-30T04:16:24.725Z,17.07
2022-10-30T04:17:24.688Z,17.02
2022-10-30T04:18:24.683Z,17.00
2022-10-30T04:19:24.676Z,17.00
2022-10-30T04:20:24.665Z,17.00
2022-10-30T04:21:24.661Z,17.00
2022-10-30T04:22:24.632Z,17.00
2022-10-30T04:23:24.631Z,17.02
2022-10-30T04:24:24.622Z,16.98
2022-10-30T04:25:24.596Z,16.96
2022-10-30T04:26:24.590Z,16.99
2022-10-30T04:27:24.576Z,17.03
2022-10-30T04:28:24.562Z,17.02
2022-10-30T04:29:24.556Z,17.06
2022-10-30T04:30:24.527Z,17.06
2022-10-30T04:31:24.523Z,17.03
2022-10-30T04:32:24.516Z,17.02
2022-10-30T04:33:24.722Z,16.96
2022-10-30T04:34:24.489Z,16.95
2022-10-30T04:35:24.487Z,16.95
2022-10-30T04:36:24.458Z,16.95
2022-10-30T04:37:24.457Z,16.92
2022-10-30T04:38:24.683Z,16.87
2022-10-30T04:39:24.430Z,16.84
2022-10-30T04:40:24.401Z,16.85
2022-10-30T04:41:24.396Z,16.77
2022-10-30T04:42:24.389Z,16.81
2022-10-30T04:43:24.370Z,16.75
2022-10-30T04:44:24.362Z,16.80
2022-10-30T04:45:24.368Z,16.80
2022-10-30T04:46:24.329Z,16.81
2022-10-30T04:47:24.362Z,16.84
2022-10-30T04:48:24.339Z,16.82
2022-10-30T04:49:24.484Z,16.84
2022-10-30T04:50:24.293Z,16.82
2022-10-30T04:51:24.287Z,16.82
2022-10-30T04:52:24.258Z,16.92
2022-10-30T04:53:24.236Z,16.90
2022-10-30T04:54:24.485Z,16.90
2022-10-30T04:55:24.219Z,16.90
2022-10-30T04:56:24.205Z,16.91
2022-10-30T04:57:24.203Z,16.92
2022-10-30T04:58:24.183Z,16.87
2022-10-30T04:59:24.175Z,16.91
2022-10-30T05:00:24.172Z,16.85
2022-10-30T05:01:24.952Z,16.87
2022-10-30T05:02:24.441Z,16.90
2022-10-30T05:03:24.138Z,16.85
2022-10-30T05:04:24.116Z,16.80
2022-10-30T05:05:24.087Z,16.78
2022-10-30T05:06:24.093Z,16.80
2022-10-30T05:07:24.072Z,16.73
2022-10-30T05:08:24.062Z,16.75
2022-10-30T05:09:24.084Z,16.73
2022-10-30T05:10:24.034Z,16.73
2022-10-30T05:11:24.027Z,16.75
2022-10-30T05:12:24.011Z,16.73
2022-10-30T05:13:24.011Z,16.70
2022-10-30T05:14:23.974Z,16.73
2022-10-30T05:15:23.983Z,16.70
2022-10-30T05:16:23.964Z,16.75
2022-10-30T05:17:24.241Z,16.72
2022-10-30T05:18:23.917Z,16.77
2022-10-30T05:19:23.941Z,16.73
2022-10-30T05:20:23.905Z,16.70
2022-10-30T05:21:23.897Z,16.78
2022-10-30T05:22:23.869Z,16.80
2022-10-30T05:23:24.074Z,16.81
2022-10-30T05:24:23.840Z,16.82
2022-10-30T05:25:24.056Z,16.84
2022-10-30T05:26:23.858Z,16.78
2022-10-30T05:27:23.827Z,16.84
2022-10-30T05:28:23.798Z,16.87
2022-10-30T05:29:23.790Z,16.85
2022-10-30T05:30:23.771Z,16.88
2022-10-30T05:31:23.763Z,16.91
2022-10-30T05:32:23.743Z,16.91
2022-10-30T05:33:23.790Z,16.90
2022-10-30T05:34:23.740Z,16.87
2022-10-30T05:35:23.712Z,16.87
2022-10-30T05:36:23.689Z,16.88
2022-10-30T05:37:23.677Z,16.88
2022-10-30T05:38:23.671Z,16.78
2022-10-30T05:39:23.661Z,16.77
2022-10-30T05:40:23.638Z,16.75
2022-10-30T05:41:23.630Z,16.78
2022-10-30T05:42:23.623Z,16.77
2022-10-30T05:43:23.602Z,16.70
2022-10-30T05:44:40.568Z,16.70
2022-10-30T05:45:23.561Z,16.69
2022-10-30T05:46:23.514Z,16.65
2022-10-30T05:47:23.494Z,16.65
2022-10-30T05:48:23.508Z,16.67
2022-10-30T05:49:23.475Z,16.66
2022-10-30T05:50:23.474Z,16.60
2022-10-30T05:51:23.485Z,16.57
2022-10-30T05:52:23.446Z,16.54
2022-10-30T05:53:23.426Z,16.54
2022-10-30T05:54:23.417Z,16.50
2022-10-30T05:55:23.421Z,16.50
2022-10-30T05:56:23.412Z,16.48
2022-10-30T05:57:23.387Z,16.47
2022-10-30T05:58:23.362Z,16.41
2022-10-30T05:59:23.366Z,16.36
2022-10-30T06:00:23.369Z,16.37
2022-10-30T06:01:23.452Z,16.36
2022-10-30T06:02:23.370Z,16.32
2022-10-30T06:03:23.404Z,16.30
2022-10-30T06:04:23.298Z,16.23
2022-10-30T06:05:23.274Z,16.17
2022-10-30T06:06:23.258Z,16.10
2022-10-30T06:07:23.246Z,16.04
2022-10-30T06:08:23.238Z,16.07
2022-10-30T06:09:23.232Z,15.96
2022-10-30T06:10:23.220Z,16.03
2022-10-30T06:11:23.188Z,15.96
2022-10-30T06:12:23.189Z,15.92
2022-10-30T06:13:23.167Z,15.85
2022-10-30T06:14:23.159Z,15.86
2022-10-30T06:15:23.159Z,15.74
2022-10-30T06:16:23.224Z,15.73
2022-10-30T06:17:23.118Z,15.71
2022-10-30T06:18:23.113Z,15.76
2022-10-30T06:20:21.547Z,15.70
2022-10-30T06:21:22.541Z,15.71
2022-10-30T06:22:22.515Z,15.70
2022-10-30T06:23:22.511Z,15.66
2022-10-30T06:24:22.488Z,15.70
2022-10-30T06:25:22.501Z,15.74
2022-10-30T06:26:22.465Z,15.67
2022-10-30T06:27:22.463Z,15.64
2022-10-30T06:28:22.548Z,15.56
2022-10-30T06:29:22.449Z,15.59
2022-10-30T06:30:22.419Z,15.55
2022-10-30T06:31:22.405Z,15.53
2022-10-30T06:32:22.396Z,15.58
2022-10-30T06:33:22.403Z,15.52
2022-10-30T06:34:22.363Z,15.52
2022-10-30T06:35:22.370Z,15.60
2022-10-30T06:36:22.337Z,15.64
2022-10-30T06:37:22.364Z,15.60
2022-10-30T06:38:22.336Z,15.62
2022-10-30T06:39:22.322Z,15.62
2022-10-30T06:40:22.293Z,15.56
2022-10-30T06:41:29.139Z,15.64
2022-10-30T06:42:22.268Z,15.68
2022-10-30T06:43:32.771Z,15.71
2022-10-30T06:44:22.236Z,15.66
2022-10-30T06:45:22.229Z,15.73
2022-10-30T06:46:24.542Z,15.66
2022-10-30T06:47:22.204Z,15.62
2022-10-30T06:48:22.180Z,15.64
2022-10-30T06:49:22.171Z,15.60
2022-10-30T06:50:22.193Z,15.58
2022-10-30T06:51:22.157Z,15.59
2022-10-30T06:52:22.131Z,15.51
2022-10-30T06:53:22.129Z,15.55
2022-10-30T06:54:22.103Z,15.44
2022-10-30T06:55:22.095Z,15.51
2022-10-30T06:56:22.100Z,15.49
2022-10-30T06:57:28.631Z,15.46
2022-10-30T06:58:29.097Z,15.46
2022-10-30T06:59:22.041Z,15.53
2022-10-30T07:00:36.635Z,15.60
2022-10-30T07:01:22.110Z,15.64
2022-10-30T07:02:22.117Z,15.62
2022-10-30T07:03:22.009Z,15.70
2022-10-30T07:04:21.989Z,15.71
2022-10-30T07:05:21.965Z,15.78
2022-10-30T07:06:21.954Z,15.77
2022-10-30T07:07:21.943Z,15.88
2022-10-30T07:08:21.953Z,15.95
2022-10-30T07:09:21.937Z,16.04
2022-10-30T07:10:21.957Z,16.10
2022-10-30T07:11:21.897Z,16.17
2022-10-30T07:12:21.895Z,16.18
2022-10-30T07:13:21.868Z,16.27
2022-10-30T07:14:21.890Z,16.33
2022-10-30T07:15:21.846Z,16.36
2022-10-30T07:16:21.885Z,16.44
2022-10-30T07:17:21.821Z,16.45
2022-10-30T07:18:21.814Z,16.51
2022-10-30T07:19:21.795Z,16.70
2022-10-30T07:20:21.790Z,16.73
2022-10-30T07:21:22.663Z,16.84
2022-10-30T07:22:21.762Z,16.95
2022-10-30T07:23:21.738Z,16.91
2022-10-30T07:24:21.768Z,17.02
2022-10-30T07:25:21.720Z,17.12
2022-10-30T07:26:21.696Z,17.06
2022-10-30T07:27:21.691Z,17.15
2022-10-30T07:28:21.673Z,17.24
2022-10-30T07:29:21.688Z,17.33
2022-10-30T07:30:21.781Z,17.30
2022-10-30T07:31:34.865Z,17.35
2022-10-30T07:32:21.650Z,17.39
2022-10-30T07:33:21.601Z,17.40
2022-10-30T07:34:21.622Z,17.45
2022-10-30T07:35:21.586Z,17.51
2022-10-30T07:36:21.590Z,17.65
2022-10-30T07:37:21.577Z,17.73
2022-10-30T07:38:21.581Z,17.76
2022-10-30T07:39:21.527Z,17.76
2022-10-30T07:40:21.513Z,17.86
2022-10-30T07:41:21.512Z,17.94
2022-10-30T07:42:21.488Z,17.99
2022-10-30T07:43:21.475Z,18.01
2022-10-30T07:44:21.477Z,18.01
2022-10-30T07:46:44.849Z,18.01
2022-10-30T07:47:45.806Z,18.04
2022-10-30T07:48:45.799Z,18.14
2022-10-30T07:49:45.807Z,18.21
2022-10-30T07:50:45.778Z,18.38
2022-10-30T07:51:45.761Z,18.49
2022-10-30T07:52:45.745Z,18.50
2022-10-30T07:53:45.740Z,18.57
2022-10-30T07:54:53.259Z,18.51
2022-10-30T07:55:45.714Z,18.51
2022-10-30T07:56:45.723Z,18.47
2022-10-30T07:57:45.695Z,18.39
2022-10-30T07:58:46.031Z,18.29
2022-10-30T07:59:45.747Z,18.31
2022-10-30T08:00:45.732Z,18.38
2022-10-30T08:01:45.755Z,18.41
2022-10-30T08:02:45.816Z,18.44
2022-10-30T08:03:45.633Z,18.31
2022-10-30T08:06:54.397Z,18.20
2022-10-30T08:07:55.567Z,18.26
2022-10-30T08:08:55.357Z,18.32
2022-10-30T08:09:55.340Z,18.39
2022-10-30T08:10:55.352Z,18.38
2022-10-30T08:11:55.333Z,18.42
2022-10-30T08:12:55.311Z,18.44
2022-10-30T08:13:55.289Z,18.39
2022-10-30T08:14:55.267Z,18.53
2022-10-30T08:15:55.258Z,18.62
2022-10-30T08:16:55.260Z,18.71
2022-10-30T08:17:55.514Z,18.75
2022-10-30T08:18:55.219Z,18.83
2022-10-30T08:19:55.214Z,18.86
2022-10-30T08:20:55.196Z,18.94
2022-10-30T08:21:59.114Z,18.97
2022-10-30T08:22:55.346Z,18.94
2022-10-30T08:23:55.190Z,18.86
2022-10-30T08:24:55.156Z,18.91
2022-10-30T08:25:55.139Z,18.79
2022-10-30T08:26:55.126Z,18.72
2022-10-30T08:27:55.159Z,18.59
2022-10-30T08:28:55.104Z,18.59
2022-10-30T08:29:55.155Z,18.69
2022-10-30T08:30:55.072Z,18.78
2022-10-30T08:31:55.058Z,18.72
2022-10-30T08:32:55.194Z,18.76
2022-10-30T08:33:55.037Z,18.93
2022-10-30T08:34:55.016Z,19.10
2022-10-30T08:35:55.045Z,19.23
2022-10-30T08:36:54.996Z,19.28
2022-10-30T08:37:54.995Z,19.28
2022-10-30T08:38:54.966Z,19.32
2022-10-30T08:39:54.990Z,19.34
2022-10-30T08:40:54.968Z,19.35
2022-10-30T08:41:54.941Z,19.34
2022-10-30T08:42:54.915Z,19.27
2022-10-30T08:43:54.923Z,19.34
2022-10-30T08:44:54.889Z,19.43
2022-10-30T08:45:54.872Z,19.45
2022-10-30T08:46:54.883Z,19.45
2022-10-30T08:47:54.892Z,19.46
2022-10-30T08:48:54.885Z,19.52
2022-10-30T08:49:54.822Z,19.58
2022-10-30T08:50:54.829Z,19.49
2022-10-30T08:51:54.838Z,19.58
2022-10-30T08:52:54.966Z,19.58
2022-10-30T08:53:54.793Z,19.78
2022-10-30T08:54:54.756Z,20.04
2022-10-30T08:55:54.757Z,20.16
2022-10-30T08:56:54.746Z,20.25
2022-10-30T08:57:54.731Z,20.46
2022-10-30T08:58:54.714Z,20.56
2022-10-30T08:59:54.703Z,20.58
2022-10-30T09:01:00.186Z,20.42
2022-10-30T09:01:54.794Z,20.44
2022-10-30T09:02:54.667Z,20.51
2022-10-30T09:03:54.650Z,20.66
2022-10-30T09:04:54.702Z,20.63
2022-10-30T09:05:54.640Z,20.51
2022-10-30T09:06:54.602Z,20.58
2022-10-30T09:07:54.600Z,20.35
2022-10-30T09:08:54.581Z,20.31
2022-10-30T09:09:54.574Z,20.31
2022-10-30T09:10:54.558Z,20.27
2022-10-30T09:11:54.561Z,20.37
2022-10-30T09:12:54.539Z,20.33
2022-10-30T09:13:54.517Z,20.08
2022-10-30T09:14:54.504Z,20.07
2022-10-30T09:15:54.507Z,20.22
2022-10-30T09:16:54.489Z,20.38
2022-10-30T09:17:54.498Z,20.53
2022-10-30T09:18:54.458Z,20.63
2022-10-30T09:19:54.438Z,20.72
2022-10-30T09:20:54.435Z,20.90
2022-10-30T09:21:54.466Z,20.90
2022-10-30T09:22:54.604Z,20.93
2022-10-30T09:23:54.408Z,20.82
2022-10-30T09:24:54.419Z,20.69
2022-10-30T09:25:54.365Z,20.56
2022-10-30T09:26:54.365Z,20.64
2022-10-30T09:27:54.378Z,20.68
2022-10-30T09:28:54.337Z,20.66
2022-10-30T09:29:54.334Z,20.63
2022-10-30T09:30:54.343Z,20.54
2022-10-30T09:31:54.303Z,20.57
2022-10-30T09:32:55.138Z,20.58
2022-10-30T09:33:54.262Z,20.64
2022-10-30T09:34:54.249Z,20.69
2022-10-30T09:35:54.420Z,20.54
2022-10-30T09:36:54.255Z,20.44
2022-10-30T09:37:54.211Z,20.63
2022-10-30T09:38:54.487Z,20.61
2022-10-30T09:39:54.186Z,20.33
2022-10-30T09:40:54.231Z,20.23
2022-10-30T09:41:54.205Z,20.27
2022-10-30T09:42:54.143Z,20.37
2022-10-30T09:43:54.133Z,20.38
2022-10-30T09:45:15.287Z,20.60
2022-10-30T09:45:54.127Z,20.78
2022-10-30T09:46:54.095Z,20.98
2022-10-30T09:47:54.120Z,21.12
2022-10-30T09:48:54.072Z,20.97
2022-10-30T09:49:54.073Z,20.61
2022-10-30T09:50:54.054Z,20.56
2022-10-30T09:51:54.031Z,20.54
2022-10-30T09:52:54.064Z,20.71
2022-10-30T09:53:54.022Z,20.83
2022-10-30T09:54:53.997Z,20.97
2022-10-30T09:55:53.988Z,21.21
2022-10-30T09:56:58.057Z,21.30
2022-10-30T09:57:53.973Z,21.46
2022-10-30T09:58:53.969Z,21.45
2022-10-30T09:59:54.137Z,21.22
2022-10-30T10:00:53.939Z,21.09
2022-10-30T10:01:53.998Z,20.91
2022-10-30T10:02:54.033Z,20.72
2022-10-30T10:03:53.912Z,20.83
2022-10-30T10:04:53.865Z,20.85
2022-10-30T10:05:53.873Z,20.76
2022-10-30T10:06:53.888Z,20.97
2022-10-30T10:07:53.838Z,21.08
2022-10-30T10:08:53.835Z,21.12
2022-10-30T10:09:53.858Z,21.13
2022-10-30T10:10:53.813Z,21.11
2022-10-30T10:11:53.790Z,21.22
2022-10-30T10:13:00.205Z,21.28
2022-10-30T10:13:53.795Z,21.19
2022-10-30T10:14:53.745Z,21.46
2022-10-30T10:15:53.732Z,21.49
2022-10-30T10:16:53.718Z,21.61
2022-10-30T10:17:53.733Z,21.67
2022-10-30T10:18:53.738Z,21.63
2022-10-30T10:19:53.683Z,21.49
2022-10-30T10:20:53.809Z,21.52
2022-10-30T10:21:53.661Z,21.64
2022-10-30T10:22:53.647Z,21.67
2022-10-30T10:23:53.667Z,21.66
2022-10-30T10:24:53.610Z,21.56
2022-10-30T10:25:53.611Z,21.56
2022-10-30T10:26:53.663Z,21.70
2022-10-30T10:27:53.574Z,21.91
2022-10-30T10:28:53.585Z,22.19
2022-10-30T10:29:53.575Z,22.51
2022-10-30T10:30:53.572Z,22.61
2022-10-30T10:31:53.547Z,22.46
2022-10-30T10:32:53.525Z,22.46
2022-10-30T10:33:56.761Z,22.60
2022-10-30T10:34:53.506Z,22.51
2022-10-30T10:35:53.513Z,22.70
2022-10-30T10:36:53.475Z,22.76
2022-10-30T10:37:53.470Z,22.84
2022-10-30T10:38:53.443Z,22.56
2022-10-30T10:39:53.430Z,22.35
2022-10-30T10:40:53.450Z,22.36
2022-10-30T10:41:53.862Z,22.44
2022-10-30T10:42:53.411Z,22.33
2022-10-30T10:43:53.385Z,22.33
2022-10-30T10:44:53.383Z,22.21
2022-10-30T10:45:53.373Z,22.30
2022-10-30T10:46:53.354Z,22.24
2022-10-30T10:47:53.380Z,22.33
2022-10-30T10:48:53.353Z,22.42
2022-10-30T10:49:53.313Z,22.49
2022-10-30T10:50:53.294Z,22.66
2022-10-30T10:51:53.280Z,22.78
2022-10-30T10:52:53.294Z,22.94
2022-10-30T10:53:53.274Z,23.18
2022-10-30T10:54:53.272Z,23.16
2022-10-30T10:55:53.259Z,23.01
2022-10-30T10:56:53.229Z,22.82
2022-10-30T10:57:53.200Z,22.75
2022-10-30T10:58:53.216Z,22.82
2022-10-30T10:59:53.231Z,22.93
2022-10-30T11:00:53.189Z,22.96
2022-10-30T11:01:53.412Z,22.93
2022-10-30T11:02:53.145Z,22.69
2022-10-30T11:03:53.137Z,22.66
2022-10-30T11:04:53.119Z,22.70
2022-10-30T11:05:53.170Z,22.93
2022-10-30T11:06:53.093Z,22.67
2022-10-30T11:07:53.099Z,22.60
2022-10-30T11:08:53.079Z,22.63
2022-10-30T11:09:53.082Z,22.52
2022-10-30T11:10:53.075Z,22.57
2022-10-30T11:11:53.057Z,22.64
2022-10-30T11:12:53.086Z,22.66
2022-10-30T11:13:53.041Z,22.69
2022-10-30T11:14:52.990Z,22.82
2022-10-30T11:15:53.062Z,23.06
2022-10-30T11:16:52.987Z,23.14
2022-10-30T11:17:53.054Z,23.15
2022-10-30T11:18:52.943Z,23.09
2022-10-30T11:19:52.931Z,23.03
2022-10-30T11:20:52.932Z,23.15
2022-10-30T11:21:52.961Z,23.23
2022-10-30T11:22:52.915Z,23.35
2022-10-30T11:23:52.914Z,23.15
2022-10-30T11:24:52.902Z,23.11
2022-10-30T11:25:52.869Z,23.15
2022-10-30T11:26:52.857Z,23.15
2022-10-30T11:27:52.825Z,23.16
2022-10-30T11:28:52.837Z,23.15
2022-10-30T11:29:52.844Z,22.94
2022-10-30T11:30:52.807Z,22.81
2022-10-30T11:31:52.787Z,22.93
2022-10-30T11:32:55.410Z,23.03
2022-10-30T11:33:52.776Z,22.94
2022-10-30T11:34:52.767Z,22.85
2022-10-30T11:35:52.764Z,23.01
2022-10-30T11:36:52.758Z,23.04
2022-10-30T11:37:52.744Z,23.01
2022-10-30T11:38:52.705Z,23.18
2022-10-30T11:39:52.682Z,23.18
2022-10-30T11:40:52.668Z,23.16
2022-10-30T11:41:54.832Z,23.34
2022-10-30T11:42:52.663Z,23.34
2022-10-30T11:43:52.632Z,22.91
2022-10-30T11:44:52.659Z,23.00
2022-10-30T11:45:52.628Z,23.22
2022-10-30T11:46:52.597Z,23.32
2022-10-30T11:47:52.604Z,23.35
2022-10-30T11:48:52.590Z,23.50
2022-10-30T11:49:52.558Z,23.62
2022-10-30T11:50:52.670Z,23.90
2022-10-30T11:51:52.611Z,23.77
2022-10-30T11:52:52.535Z,23.25
2022-10-30T11:53:52.519Z,23.22
2022-10-30T11:54:52.516Z,23.26
2022-10-30T11:55:52.490Z,23.34
2022-10-30T11:56:52.498Z,23.38
2022-10-30T11:57:52.465Z,23.50
2022-10-30T11:58:52.469Z,23.62
2022-10-30T11:59:52.471Z,23.79
2022-10-30T12:00:52.427Z,23.79
2022-10-30T12:01:52.792Z,23.99
2022-10-30T12:02:52.473Z,24.06
2022-10-30T12:03:52.405Z,23.97
2022-10-30T12:04:52.392Z,23.81
2022-10-30T12:05:52.394Z,23.90
2022-10-30T12:06:52.365Z,24.00
2022-10-30T12:07:52.370Z,24.19
2022-10-30T12:08:52.518Z,24.30
2022-10-30T12:09:52.335Z,24.21
2022-10-30T12:10:52.304Z,24.06
2022-10-30T12:11:52.310Z,23.93
2022-10-30T12:12:52.336Z,23.96
2022-10-30T12:13:52.264Z,23.68
2022-10-30T12:14:52.257Z,23.60
2022-10-30T12:15:52.257Z,23.89
2022-10-30T12:16:52.277Z,24.21
2022-10-30T12:17:52.273Z,24.46
2022-10-30T12:18:52.194Z,24.56
2022-10-30T12:19:52.187Z,24.64
2022-10-30T12:20:52.183Z,24.67
2022-10-30T12:21:52.204Z,24.56
2022-10-30T12:22:52.164Z,24.59
2022-10-30T12:23:52.176Z,24.30
2022-10-30T12:24:52.122Z,24.26
2022-10-30T12:25:52.151Z,24.18
2022-10-30T12:26:52.113Z,24.41
2022-10-30T12:27:52.092Z,24.48
2022-10-30T12:28:52.097Z,24.80
2022-10-30T12:30:07.916Z,24.80
2022-10-30T12:30:52.072Z,24.92
2022-10-30T12:31:52.061Z,25.08
2022-10-30T12:32:52.022Z,25.27
2022-10-30T12:33:52.031Z,24.93
2022-10-30T12:34:52.036Z,24.59
2022-10-30T12:35:52.012Z,24.29
2022-10-30T12:36:51.984Z,24.15
2022-10-30T12:37:51.962Z,23.93
2022-10-30T12:38:51.969Z,23.92
2022-10-30T12:39:51.938Z,23.84
2022-10-30T12:40:51.942Z,23.81
2022-10-30T12:41:52.052Z,23.50
2022-10-30T12:42:51.915Z,23.69
2022-10-30T12:43:51.929Z,23.92
2022-10-30T12:44:51.877Z,23.84
2022-10-30T12:45:51.880Z,23.90
2022-10-30T12:46:51.862Z,23.90
2022-10-30T12:47:51.857Z,23.94
2022-10-30T12:48:51.849Z,23.74
2022-10-30T12:49:51.848Z,23.59
2022-10-30T12:50:51.836Z,23.52
2022-10-30T12:51:51.790Z,23.60
2022-10-30T12:52:51.788Z,23.62
2022-10-30T12:53:51.769Z,23.69
2022-10-30T12:54:51.747Z,23.56
2022-10-30T12:55:51.739Z,23.49
2022-10-30T12:56:51.772Z,23.45
2022-10-30T12:57:51.716Z,23.59
2022-10-30T12:58:51.696Z,23.68